sensor_id;sensor_type;location;lat;lon;timestamp;P1;durP1;ratioP1;P2;durP2;ratioP2
20478;SDS011;10398;52.490;13.434;2022-11-03T00:01:05;12.73;;;4.50;;
20478;SDS011;10398;52.490;13.434;2022-11-03T00:03:30;10.47;;;4.00;;
20478;SDS011;10398;52.490;13.434;2022-11-03T00:05:56;14.17;;;3.87;;
20478;SDS011;10398;52.490;13.434;2022-11-03T00:08:38;15.20;;;3.70;;
20478;SDS011;10398;52.490;13.434;2022-11-03T00:11:12;10.43;;;3.67;;
20478;SDS011;10398;52.490;13.434;2022-11-03T00:13:42;11.73;;;3.47;;
20478;SDS011;10398;52.490;13.434;2022-11-03T00:16:09;8.03;;;3.40;;
20478;SDS011;10398;52.490;13.434;2022-11-03T00:18:36;15.87;;;3.60;;
20478;SDS011;10398;52.490;13.434;2022-11-03T00:21:03;11.27;;;4.07;;
20478;SDS011;10398;52.490;13.434;2022-11-03T00:23:34;13.33;;;3.30;;
20478;SDS011;10398;52.490;13.434;2022-11-03T00:26:23;10.80;;;3.27;;
20478;SDS011;10398;52.490;13.434;2022-11-03T00:28:51;12.87;;;3.37;;
20478;SDS011;10398;52.490;13.434;2022-11-03T00:31:19;10.50;;;3.40;;
20478;SDS011;10398;52.490;13.434;2022-11-03T00:33:50;10.23;;;3.20;;
20478;SDS011;10398;52.490;13.434;2022-11-03T00:36:17;10.20;;;3.40;;
20478;SDS011;10398;52.490;13.434;2022-11-03T00:38:45;7.53;;;3.70;;
20478;SDS011;10398;52.490;13.434;2022-11-03T00:41:11;10.87;;;3.50;;
20478;SDS011;10398;52.490;13.434;2022-11-03T00:43:37;31.10;;;9.40;;
20478;SDS011;10398;52.490;13.434;2022-11-03T00:46:04;19.90;;;7.43;;
20478;SDS011;10398;52.490;13.434;2022-11-03T00:48:31;15.10;;;5.23;;
20478;SDS011;10398;52.490;13.434;2022-11-03T00:53:36;13.93;;;4.20;;
20478;SDS011;10398;52.490;13.434;2022-11-03T00:56:05;8.37;;;3.27;;
20478;SDS011;10398;52.490;13.434;2022-11-03T00:58:33;11.70;;;3.27;;
20478;SDS011;10398;52.490;13.434;2022-11-03T01:01:06;7.90;;;3.07;;
20478;SDS011;10398;52.490;13.434;2022-11-03T01:03:35;9.90;;;3.80;;
20478;SDS011;10398;52.490;13.434;2022-11-03T01:06:06;8.67;;;3.83;;
20478;SDS011;10398;52.490;13.434;2022-11-03T01:08:52;10.17;;;4.07;;
20478;SDS011;10398;52.490;13.434;2022-11-03T01:11:19;10.10;;;3.43;;
20478;SDS011;10398;52.490;13.434;2022-11-03T01:14:05;11.60;;;3.57;;
20478;SDS011;10398;52.490;13.434;2022-11-03T01:16:32;10.00;;;3.60;;
20478;SDS011;10398;52.490;13.434;2022-11-03T01:18:58;11.57;;;3.87;;
20478;SDS011;10398;52.490;13.434;2022-11-03T01:21:24;7.50;;;3.53;;
20478;SDS011;10398;52.490;13.434;2022-11-03T01:23:49;9.73;;;3.33;;
20478;SDS011;10398;52.490;13.434;2022-11-03T01:26:15;12.57;;;3.90;;
20478;SDS011;10398;52.490;13.434;2022-11-03T01:28:42;7.60;;;3.47;;
20478;SDS011;10398;52.490;13.434;2022-11-03T01:31:19;7.87;;;3.60;;
20478;SDS011;10398;52.490;13.434;2022-11-03T01:33:47;6.50;;;3.17;;
20478;SDS011;10398;52.490;13.434;2022-11-03T01:36:14;12.53;;;3.40;;
20478;SDS011;10398;52.490;13.434;2022-11-03T01:38:41;10.77;;;3.20;;
20478;SDS011;10398;52.490;13.434;2022-11-03T01:41:08;9.47;;;3.13;;
20478;SDS011;10398;52.490;13.434;2022-11-03T01:43:37;7.80;;;3.60;;
20478;SDS011;10398;52.490;13.434;2022-11-03T01:49:10;7.43;;;3.07;;
20478;SDS011;10398;52.490;13.434;2022-11-03T01:51:39;7.80;;;2.97;;
20478;SDS011;10398;52.490;13.434;2022-11-03T01:54:09;10.33;;;3.20;;
20478;SDS011;10398;52.490;13.434;2022-11-03T01:56:40;9.10;;;2.80;;
20478;SDS011;10398;52.490;13.434;2022-11-03T01:59:10;7.83;;;2.43;;
20478;SDS011;10398;52.490;13.434;2022-11-03T02:01:38;11.50;;;3.03;;
20478;SDS011;10398;52.490;13.434;2022-11-03T02:04:06;7.33;;;2.57;;
20478;SDS011;10398;52.490;13.434;2022-11-03T02:06:45;8.20;;;2.60;;
20478;SDS011;10398;52.490;13.434;2022-11-03T02:09:16;8.27;;;2.70;;
20478;SDS011;10398;52.490;13.434;2022-11-03T02:11:43;6.43;;;2.33;;
20478;SDS011;10398;52.490;13.434;2022-11-03T02:14:27;5.57;;;2.30;;
20478;SDS011;10398;52.490;13.434;2022-11-03T02:16:54;10.13;;;2.73;;
20478;SDS011;10398;52.490;13.434;2022-11-03T02:27:14;17.37;;;2.77;;
20478;SDS011;10398;52.490;13.434;2022-11-03T02:29:40;5.83;;;1.77;;
20478;SDS011;10398;52.490;13.434;2022-11-03T02:32:07;6.20;;;2.20;;
20478;SDS011;10398;52.490;13.434;2022-11-03T02:34:53;9.17;;;2.10;;
20478;SDS011;10398;52.490;13.434;2022-11-03T02:37:26;8.47;;;2.27;;
20478;SDS011;10398;52.490;13.434;2022-11-03T02:39:56;4.40;;;2.20;;
20478;SDS011;10398;52.490;13.434;2022-11-03T02:42:26;11.13;;;2.07;;
20478;SDS011;10398;52.490;13.434;2022-11-03T02:44:53;6.60;;;2.10;;
20478;SDS011;10398;52.490;13.434;2022-11-03T02:47:21;5.57;;;1.87;;
20478;SDS011;10398;52.490;13.434;2022-11-03T02:49:50;3.90;;;2.30;;
20478;SDS011;10398;52.490;13.434;2022-11-03T02:54:58;6.43;;;2.10;;
20478;SDS011;10398;52.490;13.434;2022-11-03T02:57:31;8.27;;;2.07;;
20478;SDS011;10398;52.490;13.434;2022-11-03T03:00:04;7.23;;;2.20;;
20478;SDS011;10398;52.490;13.434;2022-11-03T03:02:35;6.10;;;2.23;;
20478;SDS011;10398;52.490;13.434;2022-11-03T03:05:06;6.10;;;2.20;;
20478;SDS011;10398;52.490;13.434;2022-11-03T03:07:35;5.73;;;2.00;;
20478;SDS011;10398;52.490;13.434;2022-11-03T03:10:17;8.87;;;2.10;;
20478;SDS011;10398;52.490;13.434;2022-11-03T03:12:46;6.83;;;1.83;;
20478;SDS011;10398;52.490;13.434;2022-11-03T03:15:14;6.57;;;2.20;;
20478;SDS011;10398;52.490;13.434;2022-11-03T03:17:48;7.60;;;2.33;;
20478;SDS011;10398;52.490;13.434;2022-11-03T03:20:27;11.83;;;2.40;;
20478;SDS011;10398;52.490;13.434;2022-11-03T03:23:19;6.30;;;2.97;;
20478;SDS011;10398;52.490;13.434;2022-11-03T03:25:48;5.40;;;2.70;;
20478;SDS011;10398;52.490;13.434;2022-11-03T03:28:23;5.00;;;1.87;;
20478;SDS011;10398;52.490;13.434;2022-11-03T03:30:53;10.40;;;2.37;;
20478;SDS011;10398;52.490;13.434;2022-11-03T03:33:21;5.43;;;2.10;;
20478;SDS011;10398;52.490;13.434;2022-11-03T03:35:50;8.30;;;2.23;;
20478;SDS011;10398;52.490;13.434;2022-11-03T03:38:22;8.03;;;2.30;;
20478;SDS011;10398;52.490;13.434;2022-11-03T03:40:52;16.40;;;2.67;;
20478;SDS011;10398;52.490;13.434;2022-11-03T03:43:21;9.33;;;2.90;;
20478;SDS011;10398;52.490;13.434;2022-11-03T03:45:51;6.30;;;2.03;;
20478;SDS011;10398;52.490;13.434;2022-11-03T03:48:19;7.43;;;2.23;;
20478;SDS011;10398;52.490;13.434;2022-11-03T03:50:45;3.93;;;2.20;;
20478;SDS011;10398;52.490;13.434;2022-11-03T03:53:13;7.77;;;2.17;;
20478;SDS011;10398;52.490;13.434;2022-11-03T03:55:43;5.50;;;2.30;;
20478;SDS011;10398;52.490;13.434;2022-11-03T03:58:12;5.13;;;2.10;;
20478;SDS011;10398;52.490;13.434;2022-11-03T04:00:39;10.63;;;2.27;;
20478;SDS011;10398;52.490;13.434;2022-11-03T04:03:16;8.10;;;2.37;;
20478;SDS011;10398;52.490;13.434;2022-11-03T04:05:43;7.77;;;2.43;;
20478;SDS011;10398;52.490;13.434;2022-11-03T04:08:10;4.83;;;2.40;;
20478;SDS011;10398;52.490;13.434;2022-11-03T04:10:37;6.97;;;2.30;;
20478;SDS011;10398;52.490;13.434;2022-11-03T04:13:03;5.70;;;2.40;;
20478;SDS011;10398;52.490;13.434;2022-11-03T04:15:48;6.63;;;2.17;;
20478;SDS011;10398;52.490;13.434;2022-11-03T04:18:32;7.63;;;2.63;;
20478;SDS011;10398;52.490;13.434;2022-11-03T04:21:16;6.20;;;2.30;;
20478;SDS011;10398;52.490;13.434;2022-11-03T04:24:00;7.53;;;2.53;;
20478;SDS011;10398;52.490;13.434;2022-11-03T04:26:26;6.70;;;2.23;;
20478;SDS011;10398;52.490;13.434;2022-11-03T04:28:53;6.27;;;2.00;;
20478;SDS011;10398;52.490;13.434;2022-11-03T04:31:19;7.47;;;2.40;;
20478;SDS011;10398;52.490;13.434;2022-11-03T04:33:46;6.87;;;2.27;;
20478;SDS011;10398;52.490;13.434;2022-11-03T04:36:17;6.37;;;2.03;;
20478;SDS011;10398;52.490;13.434;2022-11-03T04:38:47;8.00;;;2.60;;
20478;SDS011;10398;52.490;13.434;2022-11-03T04:41:19;5.77;;;2.53;;
20478;SDS011;10398;52.490;13.434;2022-11-03T04:43:49;9.53;;;2.87;;
20478;SDS011;10398;52.490;13.434;2022-11-03T04:46:16;6.93;;;2.73;;
20478;SDS011;10398;52.490;13.434;2022-11-03T04:48:49;9.03;;;2.70;;
20478;SDS011;10398;52.490;13.434;2022-11-03T04:51:17;8.90;;;2.67;;
20478;SDS011;10398;52.490;13.434;2022-11-03T04:53:48;6.83;;;2.87;;
20478;SDS011;10398;52.490;13.434;2022-11-03T04:56:17;4.87;;;2.63;;
20478;SDS011;10398;52.490;13.434;2022-11-03T04:58:46;6.20;;;2.43;;
20478;SDS011;10398;52.490;13.434;2022-11-03T05:01:12;7.53;;;2.40;;
20478;SDS011;10398;52.490;13.434;2022-11-03T05:03:39;7.43;;;2.77;;
20478;SDS011;10398;52.490;13.434;2022-11-03T05:06:10;10.13;;;2.90;;
20478;SDS011;10398;52.490;13.434;2022-11-03T05:08:42;8.00;;;2.63;;
20478;SDS011;10398;52.490;13.434;2022-11-03T05:11:14;10.63;;;2.87;;
20478;SDS011;10398;52.490;13.434;2022-11-03T05:13:56;8.77;;;2.60;;
20478;SDS011;10398;52.490;13.434;2022-11-03T05:16:24;10.23;;;2.63;;
20478;SDS011;10398;52.490;13.434;2022-11-03T05:18:50;5.40;;;2.53;;
20478;SDS011;10398;52.490;13.434;2022-11-03T05:21:17;8.07;;;2.17;;
20478;SDS011;10398;52.490;13.434;2022-11-03T05:23:46;11.50;;;1.90;;
20478;SDS011;10398;52.490;13.434;2022-11-03T05:26:16;7.23;;;2.00;;
20478;SDS011;10398;52.490;13.434;2022-11-03T05:28:45;7.47;;;2.00;;
20478;SDS011;10398;52.490;13.434;2022-11-03T05:31:26;7.73;;;3.03;;
20478;SDS011;10398;52.490;13.434;2022-11-03T05:34:17;6.43;;;2.90;;
20478;SDS011;10398;52.490;13.434;2022-11-03T05:36:48;12.03;;;2.67;;
20478;SDS011;10398;52.490;13.434;2022-11-03T05:41:56;6.13;;;2.47;;
20478;SDS011;10398;52.490;13.434;2022-11-03T05:44:33;12.53;;;2.97;;
20478;SDS011;10398;52.490;13.434;2022-11-03T05:47:01;6.70;;;2.43;;
20478;SDS011;10398;52.490;13.434;2022-11-03T05:49:33;12.30;;;2.80;;
20478;SDS011;10398;52.490;13.434;2022-11-03T05:51:58;8.37;;;2.87;;
20478;SDS011;10398;52.490;13.434;2022-11-03T05:54:26;15.73;;;3.10;;
20478;SDS011;10398;52.490;13.434;2022-11-03T05:56:56;6.73;;;2.47;;
20478;SDS011;10398;52.490;13.434;2022-11-03T05:59:23;6.87;;;2.80;;
20478;SDS011;10398;52.490;13.434;2022-11-03T06:01:53;5.37;;;2.67;;
20478;SDS011;10398;52.490;13.434;2022-11-03T06:04:25;9.47;;;2.80;;
20478;SDS011;10398;52.490;13.434;2022-11-03T06:07:15;7.60;;;2.47;;
20478;SDS011;10398;52.490;13.434;2022-11-03T06:09:48;10.67;;;2.80;;
20478;SDS011;10398;52.490;13.434;2022-11-03T06:12:16;5.87;;;2.73;;
20478;SDS011;10398;52.490;13.434;2022-11-03T06:14:44;7.00;;;2.60;;
20478;SDS011;10398;52.490;13.434;2022-11-03T06:17:32;10.60;;;2.70;;
20478;SDS011;10398;52.490;13.434;2022-11-03T06:19:56;6.83;;;2.27;;
20478;SDS011;10398;52.490;13.434;2022-11-03T06:22:28;8.53;;;2.33;;
20478;SDS011;10398;52.490;13.434;2022-11-03T06:27:47;8.13;;;2.57;;
20478;SDS011;10398;52.490;13.434;2022-11-03T06:30:27;7.07;;;2.30;;
20478;SDS011;10398;52.490;13.434;2022-11-03T06:32:57;5.33;;;2.23;;
20478;SDS011;10398;52.490;13.434;2022-11-03T06:35:25;5.83;;;2.27;;
20478;SDS011;10398;52.490;13.434;2022-11-03T06:37:51;9.77;;;2.83;;
20478;SDS011;10398;52.490;13.434;2022-11-03T06:40:31;10.20;;;2.27;;
20478;SDS011;10398;52.490;13.434;2022-11-03T06:42:58;5.80;;;2.00;;
20478;SDS011;10398;52.490;13.434;2022-11-03T06:45:25;11.60;;;2.33;;
20478;SDS011;10398;52.490;13.434;2022-11-03T06:47:51;10.80;;;2.57;;
20478;SDS011;10398;52.490;13.434;2022-11-03T06:52:50;5.53;;;2.07;;
20478;SDS011;10398;52.490;13.434;2022-11-03T06:57:43;10.77;;;3.23;;
20478;SDS011;10398;52.490;13.434;2022-11-03T07:00:31;8.63;;;2.67;;
20478;SDS011;10398;52.490;13.434;2022-11-03T07:05:43;6.53;;;3.07;;
20478;SDS011;10398;52.490;13.434;2022-11-03T07:08:13;6.50;;;3.03;;
20478;SDS011;10398;52.490;13.434;2022-11-03T07:10:41;12.40;;;3.30;;
20478;SDS011;10398;52.490;13.434;2022-11-03T07:13:14;6.73;;;2.90;;
20478;SDS011;10398;52.490;13.434;2022-11-03T07:15:46;12.27;;;3.10;;
20478;SDS011;10398;52.490;13.434;2022-11-03T07:20:43;9.03;;;3.13;;
20478;SDS011;10398;52.490;13.434;2022-11-03T07:23:11;11.00;;;3.20;;
20478;SDS011;10398;52.490;13.434;2022-11-03T07:25:40;8.33;;;2.97;;
20478;SDS011;10398;52.490;13.434;2022-11-03T07:28:07;10.33;;;3.17;;
20478;SDS011;10398;52.490;13.434;2022-11-03T07:30:34;11.37;;;3.53;;
20478;SDS011;10398;52.490;13.434;2022-11-03T07:33:22;9.67;;;3.67;;
20478;SDS011;10398;52.490;13.434;2022-11-03T07:35:48;11.80;;;2.80;;
20478;SDS011;10398;52.490;13.434;2022-11-03T07:38:17;11.93;;;2.87;;
20478;SDS011;10398;52.490;13.434;2022-11-03T07:40:45;16.30;;;4.10;;
20478;SDS011;10398;52.490;13.434;2022-11-03T07:43:30;13.20;;;3.57;;
20478;SDS011;10398;52.490;13.434;2022-11-03T07:46:00;11.50;;;2.90;;
20478;SDS011;10398;52.490;13.434;2022-11-03T07:48:29;20.93;;;3.33;;
20478;SDS011;10398;52.490;13.434;2022-11-03T07:51:45;13.87;;;2.80;;
20478;SDS011;10398;52.490;13.434;2022-11-03T07:54:34;10.77;;;2.60;;
20478;SDS011;10398;52.490;13.434;2022-11-03T07:56:41;13.47;;;3.43;;
20478;SDS011;10398;52.490;13.434;2022-11-03T08:01:36;6.00;;;2.50;;
20478;SDS011;10398;52.490;13.434;2022-11-03T08:04:06;9.00;;;3.13;;
20478;SDS011;10398;52.490;13.434;2022-11-03T08:06:34;8.90;;;3.20;;
20478;SDS011;10398;52.490;13.434;2022-11-03T08:08:59;10.70;;;2.90;;
20478;SDS011;10398;52.490;13.434;2022-11-03T08:11:25;10.97;;;2.83;;
20478;SDS011;10398;52.490;13.434;2022-11-03T08:13:50;8.63;;;2.90;;
20478;SDS011;10398;52.490;13.434;2022-11-03T08:16:18;4.47;;;2.60;;
20478;SDS011;10398;52.490;13.434;2022-11-03T08:18:44;9.20;;;2.67;;
20478;SDS011;10398;52.490;13.434;2022-11-03T08:21:10;7.23;;;2.80;;
20478;SDS011;10398;52.490;13.434;2022-11-03T08:23:36;12.50;;;2.87;;
20478;SDS011;10398;52.490;13.434;2022-11-03T08:26:02;5.37;;;2.07;;
20478;SDS011;10398;52.490;13.434;2022-11-03T08:28:28;9.73;;;2.77;;
20478;SDS011;10398;52.490;13.434;2022-11-03T08:30:53;8.73;;;2.53;;
20478;SDS011;10398;52.490;13.434;2022-11-03T08:33:19;10.97;;;2.20;;
20478;SDS011;10398;52.490;13.434;2022-11-03T08:35:45;6.00;;;2.20;;
20478;SDS011;10398;52.490;13.434;2022-11-03T08:38:10;8.70;;;2.37;;
20478;SDS011;10398;52.490;13.434;2022-11-03T08:40:36;5.70;;;2.30;;
20478;SDS011;10398;52.490;13.434;2022-11-03T08:43:02;9.37;;;1.80;;
20478;SDS011;10398;52.490;13.434;2022-11-03T08:45:28;6.23;;;2.00;;
20478;SDS011;10398;52.490;13.434;2022-11-03T08:47:54;11.87;;;2.10;;
20478;SDS011;10398;52.490;13.434;2022-11-03T08:50:20;7.43;;;1.80;;
20478;SDS011;10398;52.490;13.434;2022-11-03T08:52:46;5.37;;;1.80;;
20478;SDS011;10398;52.490;13.434;2022-11-03T08:55:12;4.87;;;1.67;;
20478;SDS011;10398;52.490;13.434;2022-11-03T08:57:37;5.33;;;1.53;;
20478;SDS011;10398;52.490;13.434;2022-11-03T09:00:03;7.23;;;1.70;;
20478;SDS011;10398;52.490;13.434;2022-11-03T09:02:30;7.90;;;1.83;;
20478;SDS011;10398;52.490;13.434;2022-11-03T09:04:56;5.67;;;1.73;;
20478;SDS011;10398;52.490;13.434;2022-11-03T09:07:21;9.17;;;1.80;;
20478;SDS011;10398;52.490;13.434;2022-11-03T09:09:47;5.37;;;2.00;;
20478;SDS011;10398;52.490;13.434;2022-11-03T09:12:13;10.33;;;2.10;;
20478;SDS011;10398;52.490;13.434;2022-11-03T09:14:38;6.50;;;1.83;;
20478;SDS011;10398;52.490;13.434;2022-11-03T09:17:04;6.90;;;1.87;;
20478;SDS011;10398;52.490;13.434;2022-11-03T09:19:30;6.33;;;1.70;;
20478;SDS011;10398;52.490;13.434;2022-11-03T09:21:55;6.77;;;2.10;;
20478;SDS011;10398;52.490;13.434;2022-11-03T09:24:21;5.47;;;2.13;;
20478;SDS011;10398;52.490;13.434;2022-11-03T09:26:46;12.03;;;1.60;;
20478;SDS011;10398;52.490;13.434;2022-11-03T09:29:12;6.77;;;1.90;;
20478;SDS011;10398;52.490;13.434;2022-11-03T09:31:38;7.10;;;1.63;;
20478;SDS011;10398;52.490;13.434;2022-11-03T09:34:03;7.03;;;1.97;;
20478;SDS011;10398;52.490;13.434;2022-11-03T09:36:29;6.20;;;2.17;;
20478;SDS011;10398;52.490;13.434;2022-11-03T09:38:54;9.73;;;2.10;;
20478;SDS011;10398;52.490;13.434;2022-11-03T09:41:20;7.03;;;1.70;;
20478;SDS011;10398;52.490;13.434;2022-11-03T09:43:46;5.03;;;1.60;;
20478;SDS011;10398;52.490;13.434;2022-11-03T09:46:12;8.80;;;1.77;;
20478;SDS011;10398;52.490;13.434;2022-11-03T09:48:40;4.33;;;2.00;;
20478;SDS011;10398;52.490;13.434;2022-11-03T09:51:07;9.83;;;2.03;;
20478;SDS011;10398;52.490;13.434;2022-11-03T09:53:35;6.10;;;1.80;;
20478;SDS011;10398;52.490;13.434;2022-11-03T09:56:01;7.47;;;1.73;;
20478;SDS011;10398;52.490;13.434;2022-11-03T09:58:27;5.13;;;1.60;;
20478;SDS011;10398;52.490;13.434;2022-11-03T10:00:52;6.23;;;1.50;;
20478;SDS011;10398;52.490;13.434;2022-11-03T10:03:18;5.63;;;1.70;;
20478;SDS011;10398;52.490;13.434;2022-11-03T10:05:44;7.17;;;1.53;;
20478;SDS011;10398;52.490;13.434;2022-11-03T10:08:16;4.87;;;1.23;;
20478;SDS011;10398;52.490;13.434;2022-11-03T10:10:58;4.30;;;1.40;;
20478;SDS011;10398;52.490;13.434;2022-11-03T10:13:46;5.70;;;1.47;;
20478;SDS011;10398;52.490;13.434;2022-11-03T10:16:14;6.83;;;1.40;;
20478;SDS011;10398;52.490;13.434;2022-11-03T10:18:42;8.17;;;1.50;;
20478;SDS011;10398;52.490;13.434;2022-11-03T10:21:16;4.53;;;1.40;;
20478;SDS011;10398;52.490;13.434;2022-11-03T10:23:43;6.93;;;1.63;;
20478;SDS011;10398;52.490;13.434;2022-11-03T10:26:10;2.50;;;1.30;;
20478;SDS011;10398;52.490;13.434;2022-11-03T10:28:37;6.23;;;1.50;;
20478;SDS011;10398;52.490;13.434;2022-11-03T10:31:05;4.97;;;1.47;;
20478;SDS011;10398;52.490;13.434;2022-11-03T10:33:54;6.47;;;1.57;;
20478;SDS011;10398;52.490;13.434;2022-11-03T10:36:24;6.27;;;1.27;;
20478;SDS011;10398;52.490;13.434;2022-11-03T10:38:54;8.50;;;1.70;;
20478;SDS011;10398;52.490;13.434;2022-11-03T10:41:24;7.63;;;1.70;;
20478;SDS011;10398;52.490;13.434;2022-11-03T10:43:58;5.50;;;1.50;;
20478;SDS011;10398;52.490;13.434;2022-11-03T10:46:24;4.97;;;1.53;;
20478;SDS011;10398;52.490;13.434;2022-11-03T10:51:34;7.63;;;1.83;;
20478;SDS011;10398;52.490;13.434;2022-11-03T10:54:00;9.20;;;2.57;;
20478;SDS011;10398;52.490;13.434;2022-11-03T10:56:28;4.23;;;1.67;;
20478;SDS011;10398;52.490;13.434;2022-11-03T10:58:54;7.90;;;1.60;;
20478;SDS011;10398;52.490;13.434;2022-11-03T11:01:21;3.50;;;1.33;;
20478;SDS011;10398;52.490;13.434;2022-11-03T11:03:47;5.23;;;1.20;;
20478;SDS011;10398;52.490;13.434;2022-11-03T11:06:17;7.63;;;2.23;;
20478;SDS011;10398;52.490;13.434;2022-11-03T11:08:45;11.23;;;1.47;;
20478;SDS011;10398;52.490;13.434;2022-11-03T11:11:13;7.73;;;1.60;;
20478;SDS011;10398;52.490;13.434;2022-11-03T11:13:40;6.20;;;2.00;;
20478;SDS011;10398;52.490;13.434;2022-11-03T11:16:07;6.87;;;1.90;;
20478;SDS011;10398;52.490;13.434;2022-11-03T11:19:11;6.07;;;1.73;;
20478;SDS011;10398;52.490;13.434;2022-11-03T11:24:02;9.20;;;3.40;;
20478;SDS011;10398;52.490;13.434;2022-11-03T11:34:38;5.53;;;1.33;;
20478;SDS011;10398;52.490;13.434;2022-11-03T11:49:47;4.33;;;1.97;;
20478;SDS011;10398;52.490;13.434;2022-11-03T11:52:24;6.93;;;1.70;;
20478;SDS011;10398;52.490;13.434;2022-11-03T11:54:50;6.47;;;1.80;;
20478;SDS011;10398;52.490;13.434;2022-11-03T11:57:16;7.43;;;1.80;;
20478;SDS011;10398;52.490;13.434;2022-11-03T11:59:44;4.47;;;1.77;;
20478;SDS011;10398;52.490;13.434;2022-11-03T12:02:22;7.83;;;2.13;;
20478;SDS011;10398;52.490;13.434;2022-11-03T12:04:50;5.50;;;1.63;;
20478;SDS011;10398;52.490;13.434;2022-11-03T12:07:33;4.60;;;1.53;;
20478;SDS011;10398;52.490;13.434;2022-11-03T12:10:10;4.80;;;1.50;;
20478;SDS011;10398;52.490;13.434;2022-11-03T12:12:46;8.07;;;1.33;;
20478;SDS011;10398;52.490;13.434;2022-11-03T12:20:58;6.37;;;1.50;;
20478;SDS011;10398;52.490;13.434;2022-11-03T12:23:46;8.17;;;1.50;;
20478;SDS011;10398;52.490;13.434;2022-11-03T12:28:49;2.83;;;1.23;;
20478;SDS011;10398;52.490;13.434;2022-11-03T12:31:15;11.20;;;1.90;;
20478;SDS011;10398;52.490;13.434;2022-11-03T12:33:40;4.30;;;1.43;;
20478;SDS011;10398;52.490;13.434;2022-11-03T12:36:06;7.73;;;1.77;;
20478;SDS011;10398;52.490;13.434;2022-11-03T12:38:32;3.10;;;1.37;;
20478;SDS011;10398;52.490;13.434;2022-11-03T12:40:58;4.97;;;1.23;;
20478;SDS011;10398;52.490;13.434;2022-11-03T12:43:43;6.77;;;1.40;;
20478;SDS011;10398;52.490;13.434;2022-11-03T12:46:09;4.30;;;1.60;;
20478;SDS011;10398;52.490;13.434;2022-11-03T12:48:35;7.47;;;1.57;;
20478;SDS011;10398;52.490;13.434;2022-11-03T12:51:01;4.70;;;1.57;;
20478;SDS011;10398;52.490;13.434;2022-11-03T12:53:26;8.23;;;1.40;;
20478;SDS011;10398;52.490;13.434;2022-11-03T12:55:52;4.20;;;1.57;;
20478;SDS011;10398;52.490;13.434;2022-11-03T12:58:17;6.87;;;1.63;;
20478;SDS011;10398;52.490;13.434;2022-11-03T13:00:43;4.50;;;1.37;;
20478;SDS011;10398;52.490;13.434;2022-11-03T13:03:09;7.83;;;2.60;;
20478;SDS011;10398;52.490;13.434;2022-11-03T13:05:34;7.97;;;2.30;;
20478;SDS011;10398;52.490;13.434;2022-11-03T13:08:00;7.10;;;1.70;;
20478;SDS011;10398;52.490;13.434;2022-11-03T13:10:25;5.97;;;1.50;;
20478;SDS011;10398;52.490;13.434;2022-11-03T13:12:51;6.03;;;1.63;;
20478;SDS011;10398;52.490;13.434;2022-11-03T13:15:16;8.43;;;2.23;;
20478;SDS011;10398;52.490;13.434;2022-11-03T13:17:42;5.90;;;1.87;;
20478;SDS011;10398;52.490;13.434;2022-11-03T13:20:08;3.87;;;1.60;;
20478;SDS011;10398;52.490;13.434;2022-11-03T13:22:34;6.03;;;1.90;;
20478;SDS011;10398;52.490;13.434;2022-11-03T13:25:00;5.87;;;1.60;;
20478;SDS011;10398;52.490;13.434;2022-11-03T13:27:25;7.83;;;1.57;;
20478;SDS011;10398;52.490;13.434;2022-11-03T13:29:51;3.13;;;1.20;;
20478;SDS011;10398;52.490;13.434;2022-11-03T13:32:19;5.73;;;1.33;;
20478;SDS011;10398;52.490;13.434;2022-11-03T13:34:44;6.37;;;1.30;;
20478;SDS011;10398;52.490;13.434;2022-11-03T13:37:10;9.93;;;1.37;;
20478;SDS011;10398;52.490;13.434;2022-11-03T13:39:36;10.53;;;1.37;;
20478;SDS011;10398;52.490;13.434;2022-11-03T13:42:01;4.90;;;1.20;;
20478;SDS011;10398;52.490;13.434;2022-11-03T13:44:27;6.13;;;1.57;;
20478;SDS011;10398;52.490;13.434;2022-11-03T13:46:52;5.33;;;1.57;;
20478;SDS011;10398;52.490;13.434;2022-11-03T13:49:18;2.70;;;1.23;;
20478;SDS011;10398;52.490;13.434;2022-11-03T13:51:45;3.90;;;1.40;;
20478;SDS011;10398;52.490;13.434;2022-11-03T13:54:10;6.43;;;1.30;;
20478;SDS011;10398;52.490;13.434;2022-11-03T13:56:36;9.30;;;1.57;;
20478;SDS011;10398;52.490;13.434;2022-11-03T13:59:01;4.73;;;1.60;;
20478;SDS011;10398;52.490;13.434;2022-11-03T14:01:27;6.53;;;1.40;;
20478;SDS011;10398;52.490;13.434;2022-11-03T14:03:53;5.27;;;1.43;;
20478;SDS011;10398;52.490;13.434;2022-11-03T14:06:18;7.00;;;2.00;;
20478;SDS011;10398;52.490;13.434;2022-11-03T14:08:44;8.03;;;1.60;;
20478;SDS011;10398;52.490;13.434;2022-11-03T14:11:09;5.53;;;1.20;;
20478;SDS011;10398;52.490;13.434;2022-11-03T14:13:53;4.50;;;1.50;;
20478;SDS011;10398;52.490;13.434;2022-11-03T14:16:19;4.87;;;1.30;;
20478;SDS011;10398;52.490;13.434;2022-11-03T14:18:45;6.30;;;1.50;;
20478;SDS011;10398;52.490;13.434;2022-11-03T14:21:10;6.70;;;1.67;;
20478;SDS011;10398;52.490;13.434;2022-11-03T14:23:36;8.40;;;1.60;;
20478;SDS011;10398;52.490;13.434;2022-11-03T14:26:01;4.70;;;1.50;;
20478;SDS011;10398;52.490;13.434;2022-11-03T14:28:27;6.73;;;1.60;;
20478;SDS011;10398;52.490;13.434;2022-11-03T14:30:53;5.10;;;1.63;;
20478;SDS011;10398;52.490;13.434;2022-11-03T14:33:23;6.07;;;1.57;;
20478;SDS011;10398;52.490;13.434;2022-11-03T14:35:50;6.90;;;1.43;;
20478;SDS011;10398;52.490;13.434;2022-11-03T14:38:15;6.73;;;1.30;;
20478;SDS011;10398;52.490;13.434;2022-11-03T14:40:41;3.57;;;1.20;;
20478;SDS011;10398;52.490;13.434;2022-11-03T14:43:26;4.80;;;1.57;;
20478;SDS011;10398;52.490;13.434;2022-11-03T14:45:52;3.83;;;1.37;;
20478;SDS011;10398;52.490;13.434;2022-11-03T14:48:17;4.37;;;1.67;;
20478;SDS011;10398;52.490;13.434;2022-11-03T14:50:43;6.03;;;1.50;;
20478;SDS011;10398;52.490;13.434;2022-11-03T14:53:09;9.43;;;2.17;;
20478;SDS011;10398;52.490;13.434;2022-11-03T14:55:34;8.60;;;1.70;;
20478;SDS011;10398;52.490;13.434;2022-11-03T14:58:00;5.70;;;1.60;;
20478;SDS011;10398;52.490;13.434;2022-11-03T15:00:26;7.57;;;1.97;;
20478;SDS011;10398;52.490;13.434;2022-11-03T15:02:51;6.30;;;1.67;;
20478;SDS011;10398;52.490;13.434;2022-11-03T15:05:17;4.30;;;1.63;;
20478;SDS011;10398;52.490;13.434;2022-11-03T15:08:01;5.73;;;1.70;;
20478;SDS011;10398;52.490;13.434;2022-11-03T15:10:27;6.93;;;1.90;;
20478;SDS011;10398;52.490;13.434;2022-11-03T15:12:52;6.57;;;1.60;;
20478;SDS011;10398;52.490;13.434;2022-11-03T15:15:18;7.13;;;2.00;;
20478;SDS011;10398;52.490;13.434;2022-11-03T15:17:43;3.57;;;1.67;;
20478;SDS011;10398;52.490;13.434;2022-11-03T15:20:09;6.50;;;1.97;;
20478;SDS011;10398;52.490;13.434;2022-11-03T15:22:35;7.13;;;2.30;;
20478;SDS011;10398;52.490;13.434;2022-11-03T15:25:00;16.03;;;5.67;;
20478;SDS011;10398;52.490;13.434;2022-11-03T15:27:26;13.07;;;4.50;;
20478;SDS011;10398;52.490;13.434;2022-11-03T15:29:51;11.33;;;4.03;;
20478;SDS011;10398;52.490;13.434;2022-11-03T15:32:17;8.17;;;2.60;;
20478;SDS011;10398;52.490;13.434;2022-11-03T15:34:43;9.43;;;2.67;;
20478;SDS011;10398;52.490;13.434;2022-11-03T15:37:09;10.87;;;2.70;;
20478;SDS011;10398;52.490;13.434;2022-11-03T15:39:34;11.07;;;2.67;;
20478;SDS011;10398;52.490;13.434;2022-11-03T15:42:00;12.20;;;2.37;;
20478;SDS011;10398;52.490;13.434;2022-11-03T15:44:25;9.70;;;2.20;;
20478;SDS011;10398;52.490;13.434;2022-11-03T15:46:51;6.57;;;2.27;;
20478;SDS011;10398;52.490;13.434;2022-11-03T15:49:16;9.13;;;2.57;;
20478;SDS011;10398;52.490;13.434;2022-11-03T15:51:42;10.17;;;3.27;;